Time;durP1;ratioP1;P1;durP2;ratioP2;P2;SDS_P1;SDS_P2;PMS_P1;PMS_P2;Temp;Humidity;BMP_temperature;BMP_pressure;BME280_temperature;BME280_humidity;BME280_pressure;Samples;Min_cycle;Max_cycle;Signal;HPM_P1;HPM_P2
2023/05/10 00:01:55;;;;;;;11.90;5.25;;;;;;;;;;6194785;28;20323;-80
2023/05/10 00:05:02;;;;;;;16.50;5.60;;;;;;;;;;6186774;28;20305;-78
2023/05/10 00:08:07;;;;;;;10.65;4.80;;;;;;;;;;6187273;28;20289;-78
2023/05/10 00:11:12;;;;;;;11.25;4.88;;;;;;;;;;6189810;28;20297;-77
2023/05/10 00:14:18;;;;;;;14.25;5.68;;;;;;;;;;6194506;28;20286;-78
2023/05/10 00:17:23;;;;;;;10.88;5.38;;;;;;;;;;6189548;28;20298;-78
2023/05/10 00:20:29;;;;;;;10.25;5.03;;;;;;;;;;6186131;28;20289;-79
2023/05/10 00:23:34;;;;;;;15.43;5.80;;;;;;;;;;6186361;28;20297;-78
2023/05/10 00:26:42;;;;;;;19.52;5.15;;;;;;;;;;6185116;28;20303;-78
2023/05/10 00:29:47;;;;;;;10.77;5.63;;;;;;;;;;6200395;28;20295;-78
2023/05/10 00:32:52;;;;;;;7.55;5.25;;;;;;;;;;6168631;28;20298;-78
2023/05/10 00:35:59;;;;;;;7.38;5.78;;;;;;;;;;6193076;28;20302;-78
2023/05/10 00:39:04;;;;;;;8.35;4.82;;;;;;;;;;6189906;28;20290;-78
2023/05/10 00:42:10;;;;;;;10.93;5.03;;;;;;;;;;6190423;28;20589;-79
2023/05/10 00:45:15;;;;;;;12.55;5.57;;;;;;;;;;6190139;28;20305;-79
2023/05/10 00:48:21;;;;;;;18.20;5.97;;;;;;;;;;6188998;28;20297;-78
2023/05/10 00:51:27;;;;;;;23.75;6.05;;;;;;;;;;6172215;28;20297;-79
2023/05/10 00:54:32;;;;;;;21.17;6.13;;;;;;;;;;6204897;28;20298;-78
2023/05/10 00:57:37;;;;;;;14.32;5.60;;;;;;;;;;6197619;28;20309;-77
2023/05/10 01:00:44;;;;;;;9.48;5.75;;;;;;;;;;6190357;28;20667;-79
2023/05/10 01:03:50;;;;;;;13.48;5.70;;;;;;;;;;6188878;28;20301;-77
2023/05/10 01:06:57;;;;;;;15.15;5.30;;;;;;;;;;6204655;28;20295;-77
2023/05/10 01:10:02;;;;;;;15.43;6.57;;;;;;;;;;6189241;28;20289;-77
2023/05/10 01:13:07;;;;;;;17.08;5.68;;;;;;;;;;6172346;28;20582;-77
2023/05/10 01:16:12;;;;;;;11.65;5.97;;;;;;;;;;6189105;28;20323;-78
2023/05/10 01:19:21;;;;;;;9.00;5.93;;;;;;;;;;6188813;28;20302;-77
2023/05/10 01:22:43;;;;;;;7.35;5.63;;;;;;;;;;6163949;28;20299;-77
2023/05/10 01:26:20;;;;;;;8.20;5.63;;;;;;;;;;6204499;28;20293;-78
2023/05/10 01:29:55;;;;;;;8.63;5.95;;;;;;;;;;6187689;28;20297;-78
2023/05/10 01:33:22;;;;;;;8.82;6.25;;;;;;;;;;6165907;28;20301;-78
2023/05/10 01:36:32;;;;;;;17.80;6.40;;;;;;;;;;6188286;28;20486;-78
2023/05/10 01:39:45;;;;;;;6.43;5.60;;;;;;;;;;6188515;28;20299;-78
2023/05/10 01:42:52;;;;;;;8.23;5.85;;;;;;;;;;6188796;28;20282;-78
2023/05/10 01:46:04;;;;;;;7.78;6.18;;;;;;;;;;6203155;28;20516;-79
2023/05/10 01:49:18;;;;;;;9.20;5.80;;;;;;;;;;6187972;28;20313;-78
2023/05/10 01:52:43;;;;;;;24.35;6.68;;;;;;;;;;6203574;28;20298;-77
2023/05/10 01:55:52;;;;;;;11.68;5.82;;;;;;;;;;6169976;28;20462;-77
2023/05/10 01:58:58;;;;;;;13.38;6.32;;;;;;;;;;6186918;28;20306;-78
2023/05/10 02:02:04;;;;;;;22.02;6.10;;;;;;;;;;6203571;28;20293;-78
2023/05/10 02:05:13;;;;;;;11.88;6.38;;;;;;;;;;6203105;28;20298;-77
2023/05/10 02:08:19;;;;;;;13.13;5.78;;;;;;;;;;6211221;28;20305;-77
2023/05/10 02:11:25;;;;;;;10.95;6.30;;;;;;;;;;6189166;28;20578;-78
2023/05/10 02:14:31;;;;;;;12.65;6.78;;;;;;;;;;6186334;28;20371;-77
2023/05/10 02:17:39;;;;;;;9.70;5.80;;;;;;;;;;6202815;28;20285;-78
2023/05/10 02:20:47;;;;;;;11.07;5.72;;;;;;;;;;6202294;28;20373;-78
2023/05/10 02:23:54;;;;;;;9.57;6.05;;;;;;;;;;6187521;28;20354;-78
2023/05/10 02:26:59;;;;;;;11.20;6.03;;;;;;;;;;6187528;28;20290;-77
2023/05/10 02:30:06;;;;;;;7.45;5.93;;;;;;;;;;6187370;28;20298;-78
2023/05/10 02:33:12;;;;;;;11.60;6.35;;;;;;;;;;6187278;28;20289;-78
2023/05/10 02:36:19;;;;;;;6.80;5.97;;;;;;;;;;6186390;28;20305;-77
2023/05/10 02:39:24;;;;;;;6.53;5.93;;;;;;;;;;6187032;28;20306;-79
2023/05/10 02:42:32;;;;;;;12.30;6.10;;;;;;;;;;6187853;28;20302;-78
2023/05/10 02:45:38;;;;;;;7.30;6.15;;;;;;;;;;6185467;28;20298;-78
2023/05/10 02:48:44;;;;;;;12.93;6.22;;;;;;;;;;6186637;28;20302;-79
2023/05/10 02:51:53;;;;;;;9.77;6.60;;;;;;;;;;6170060;28;20289;-78
2023/05/10 02:55:03;;;;;;;7.65;5.60;;;;;;;;;;6187271;28;20290;-79
2023/05/10 02:58:08;;;;;;;9.27;6.05;;;;;;;;;;6186857;28;20442;-78
2023/05/10 03:01:14;;;;;;;13.20;6.38;;;;;;;;;;6201081;28;20593;-78
2023/05/10 03:04:19;;;;;;;11.52;6.18;;;;;;;;;;6165875;28;20451;-78
2023/05/10 03:07:26;;;;;;;11.15;6.75;;;;;;;;;;6201787;28;20289;-77
2023/05/10 03:10:33;;;;;;;7.75;6.50;;;;;;;;;;6188288;28;20297;-78
2023/05/10 03:13:45;;;;;;;9.60;6.20;;;;;;;;;;6184732;28;20396;-77
2023/05/10 03:16:56;;;;;;;7.50;5.80;;;;;;;;;;6169569;28;20285;-78
2023/05/10 03:20:07;;;;;;;13.15;5.88;;;;;;;;;;6193795;28;20293;-78
2023/05/10 03:23:24;;;;;;;8.73;6.53;;;;;;;;;;6170912;28;20321;-78
2023/05/10 03:26:31;;;;;;;8.07;5.78;;;;;;;;;;6186721;28;20286;-78
2023/05/10 03:29:46;;;;;;;8.88;6.18;;;;;;;;;;6184089;28;20242;-78
2023/05/10 03:32:52;;;;;;;9.45;6.60;;;;;;;;;;6184614;28;20379;-78
2023/05/10 03:35:58;;;;;;;12.48;6.40;;;;;;;;;;6185256;28;20289;-77
2023/05/10 03:39:05;;;;;;;11.13;6.85;;;;;;;;;;6184996;28;20302;-78
2023/05/10 03:42:12;;;;;;;12.35;6.65;;;;;;;;;;6169924;28;20343;-78
2023/05/10 03:45:18;;;;;;;8.93;6.22;;;;;;;;;;6185141;28;20317;-78
2023/05/10 03:48:23;;;;;;;13.52;6.47;;;;;;;;;;6184584;28;20293;-78
2023/05/10 03:51:28;;;;;;;9.85;6.30;;;;;;;;;;6169425;28;20301;-78
2023/05/10 03:54:35;;;;;;;12.05;6.90;;;;;;;;;;6186424;28;20297;-77
2023/05/10 03:57:40;;;;;;;9.55;6.10;;;;;;;;;;6186816;28;20584;-77
2023/05/10 04:00:46;;;;;;;7.85;6.55;;;;;;;;;;6185312;28;20512;-77
2023/05/10 04:03:51;;;;;;;11.98;6.38;;;;;;;;;;6185954;28;20310;-77
2023/05/10 04:06:57;;;;;;;16.33;6.30;;;;;;;;;;6186943;28;20309;-78
2023/05/10 04:10:03;;;;;;;13.02;6.75;;;;;;;;;;6171565;28;20386;-78
2023/05/10 04:13:11;;;;;;;9.45;5.60;;;;;;;;;;6190813;28;20301;-78
2023/05/10 04:16:16;;;;;;;7.75;6.15;;;;;;;;;;6191525;28;20472;-78
2023/05/10 04:19:21;;;;;;;6.70;6.00;;;;;;;;;;6190678;28;20326;-78
2023/05/10 04:22:27;;;;;;;10.15;5.80;;;;;;;;;;6190324;28;20474;-78
2023/05/10 04:25:36;;;;;;;8.90;5.32;;;;;;;;;;6191521;28;20558;-78
2023/05/10 04:28:41;;;;;;;7.93;5.72;;;;;;;;;;6190386;28;20369;-78
2023/05/10 04:31:46;;;;;;;5.78;5.10;;;;;;;;;;6199191;28;20369;-79
2023/05/10 04:34:51;;;;;;;6.05;5.53;;;;;;;;;;6190594;28;20281;-78
2023/05/10 04:37:57;;;;;;;7.70;5.22;;;;;;;;;;6173499;28;20527;-78
2023/05/10 04:41:08;;;;;;;11.25;5.35;;;;;;;;;;6190947;28;20302;-78
2023/05/10 04:44:13;;;;;;;6.80;5.80;;;;;;;;;;6204835;28;20302;-78
2023/05/10 04:47:18;;;;;;;12.98;5.88;;;;;;;;;;6189810;28;20310;-77
2023/05/10 04:50:23;;;;;;;5.90;4.72;;;;;;;;;;6190029;28;20298;-78
2023/05/10 04:53:28;;;;;;;12.68;5.43;;;;;;;;;;6189739;28;20321;-78
2023/05/10 04:56:35;;;;;;;16.00;5.70;;;;;;;;;;6190657;28;20298;-78
2023/05/10 04:59:40;;;;;;;9.18;5.10;;;;;;;;;;6189647;28;20447;-78
2023/05/10 05:02:46;;;;;;;11.23;5.18;;;;;;;;;;6190209;28;20294;-78
2023/05/10 05:05:51;;;;;;;8.02;4.90;;;;;;;;;;6189425;28;20298;-78
2023/05/10 05:08:56;;;;;;;6.95;4.70;;;;;;;;;;6204470;28;20301;-78
2023/05/10 05:12:02;;;;;;;8.63;5.38;;;;;;;;;;6190232;28;20290;-77
2023/05/10 05:15:09;;;;;;;7.00;4.70;;;;;;;;;;6189459;28;20606;-76
2023/05/10 05:18:14;;;;;;;5.35;4.82;;;;;;;;;;6204661;28;20293;-78
2023/05/10 05:21:21;;;;;;;9.50;4.95;;;;;;;;;;6189506;28;20294;-78
2023/05/10 05:24:26;;;;;;;5.60;4.95;;;;;;;;;;6189419;28;20362;-78
2023/05/10 05:27:33;;;;;;;8.15;4.68;;;;;;;;;;6189520;28;20364;-79
2023/05/10 05:30:39;;;;;;;8.18;4.32;;;;;;;;;;6189260;28;20305;-76
2023/05/10 05:33:44;;;;;;;6.63;4.45;;;;;;;;;;6189052;28;20302;-79
2023/05/10 05:36:49;;;;;;;9.93;5.07;;;;;;;;;;6172799;28;20373;-77
2023/05/10 05:39:55;;;;;;;6.43;4.60;;;;;;;;;;6189431;28;20289;-78
2023/05/10 05:43:02;;;;;;;7.00;5.32;;;;;;;;;;6210960;28;20293;-79
2023/05/10 05:46:07;;;;;;;6.97;4.32;;;;;;;;;;6191372;28;20290;-78
2023/05/10 05:49:13;;;;;;;6.10;4.32;;;;;;;;;;6188981;28;20303;-78
2023/05/10 05:52:18;;;;;;;8.18;3.90;;;;;;;;;;6195842;28;20590;-80
2023/05/10 05:55:25;;;;;;;8.15;4.60;;;;;;;;;;6189201;28;20302;-79
2023/05/10 05:58:33;;;;;;;4.10;3.80;;;;;;;;;;6187593;28;20298;-77
2023/05/10 06:01:38;;;;;;;10.55;4.32;;;;;;;;;;6203737;28;20542;-76
2023/05/10 06:04:43;;;;;;;22.20;5.97;;;;;;;;;;6187972;28;20310;-77
2023/05/10 06:07:49;;;;;;;10.02;4.97;;;;;;;;;;6188301;28;20416;-74
2023/05/10 06:10:54;;;;;;;13.75;5.43;;;;;;;;;;6170030;28;20301;-77
2023/05/10 06:14:01;;;;;;;11.00;4.88;;;;;;;;;;6188378;28;20285;-78
2023/05/10 06:17:06;;;;;;;13.63;5.40;;;;;;;;;;6188450;28;20286;-78
2023/05/10 06:20:15;;;;;;;14.88;4.63;;;;;;;;;;6187626;28;20297;-77
2023/05/10 06:23:22;;;;;;;14.02;4.88;;;;;;;;;;6187999;28;20377;-78
2023/05/10 06:26:27;;;;;;;5.60;4.00;;;;;;;;;;6188194;28;20290;-78
2023/05/10 06:29:33;;;;;;;11.57;5.10;;;;;;;;;;6188065;28;20569;-78
2023/05/10 06:32:39;;;;;;;5.13;4.05;;;;;;;;;;6188807;28;20301;-77
2023/05/10 06:35:44;;;;;;;13.00;5.05;;;;;;;;;;6186718;28;20301;-78
2023/05/10 06:38:51;;;;;;;13.30;5.07;;;;;;;;;;6187520;28;20298;-77
2023/05/10 06:41:56;;;;;;;11.70;4.80;;;;;;;;;;6187940;28;20293;-77
2023/05/10 06:45:02;;;;;;;12.95;4.70;;;;;;;;;;6202482;28;20310;-78
2023/05/10 06:48:08;;;;;;;10.88;4.30;;;;;;;;;;6187246;28;20290;-77
2023/05/10 06:51:13;;;;;;;13.32;4.22;;;;;;;;;;6193416;28;20306;-78
2023/05/10 06:54:18;;;;;;;5.88;4.32;;;;;;;;;;6190866;28;20289;-77
2023/05/10 06:57:24;;;;;;;7.70;4.50;;;;;;;;;;6187445;28;20326;-77
2023/05/10 07:00:38;;;;;;;11.02;4.13;;;;;;;;;;6187264;28;20306;-77
2023/05/10 07:03:44;;;;;;;5.38;4.13;;;;;;;;;;6186329;28;20325;-77
2023/05/10 07:06:50;;;;;;;24.55;4.90;;;;;;;;;;6187257;28;20391;-79
2023/05/10 07:09:56;;;;;;;7.47;3.80;;;;;;;;;;6186956;28;20302;-80
2023/05/10 07:13:01;;;;;;;13.60;4.93;;;;;;;;;;6169420;28;20297;-79
2023/05/10 07:16:09;;;;;;;12.00;4.13;;;;;;;;;;6186782;28;20293;-76
2023/05/10 07:19:14;;;;;;;15.70;4.00;;;;;;;;;;6187679;28;20298;-77
2023/05/10 07:22:19;;;;;;;6.80;3.58;;;;;;;;;;6186739;28;20293;-77
2023/05/10 07:25:26;;;;;;;8.63;4.10;;;;;;;;;;6186788;28;20302;-80
2023/05/10 07:28:31;;;;;;;12.55;4.00;;;;;;;;;;6168810;28;20478;-75
2023/05/10 07:31:37;;;;;;;9.65;4.03;;;;;;;;;;6186679;28;20297;-75
2023/05/10 07:34:44;;;;;;;12.50;4.72;;;;;;;;;;6186831;28;20298;-78
2023/05/10 07:37:49;;;;;;;10.15;3.67;;;;;;;;;;6187056;28;20578;-78
2023/05/10 07:40:54;;;;;;;6.45;3.28;;;;;;;;;;6188532;28;20301;-78
2023/05/10 07:43:59;;;;;;;9.38;3.78;;;;;;;;;;6186967;28;20570;-79
2023/05/10 07:47:06;;;;;;;9.00;3.92;;;;;;;;;;6189889;28;20306;-79
2023/05/10 07:50:13;;;;;;;14.77;4.13;;;;;;;;;;6190922;28;20290;-79
2023/05/10 07:53:19;;;;;;;10.80;3.88;;;;;;;;;;6189889;28;20305;-77
2023/05/10 07:56:27;;;;;;;7.95;3.63;;;;;;;;;;6189775;28;20405;-79
2023/05/10 07:59:32;;;;;;;5.10;3.72;;;;;;;;;;6192921;28;20298;-79
2023/05/10 08:02:39;;;;;;;6.05;3.90;;;;;;;;;;6188357;28;20293;-76
2023/05/10 08:05:44;;;;;;;4.95;3.40;;;;;;;;;;6189977;28;20298;-77
2023/05/10 08:08:50;;;;;;;8.00;3.65;;;;;;;;;;6187003;28;20602;-78
2023/05/10 08:11:55;;;;;;;13.55;4.05;;;;;;;;;;6187592;28;20307;-78
2023/05/10 08:15:00;;;;;;;11.23;3.80;;;;;;;;;;6187017;28;20578;-78
2023/05/10 08:18:07;;;;;;;3.65;3.35;;;;;;;;;;6186200;28;20297;-78
2023/05/10 08:21:13;;;;;;;5.70;3.20;;;;;;;;;;6187802;28;20310;-76
2023/05/10 08:24:19;;;;;;;5.47;3.72;;;;;;;;;;6186559;28;20294;-78
2023/05/10 08:27:24;;;;;;;11.15;3.85;;;;;;;;;;6187578;28;20293;-77
2023/05/10 08:30:29;;;;;;;10.18;3.92;;;;;;;;;;6186773;28;20367;-78
2023/05/10 08:33:35;;;;;;;7.72;3.58;;;;;;;;;;6189242;28;20305;-76
2023/05/10 08:36:41;;;;;;;7.38;3.63;;;;;;;;;;6187790;28;20298;-77
2023/05/10 08:39:47;;;;;;;8.93;3.60;;;;;;;;;;6186848;28;20301;-76
2023/05/10 08:42:57;;;;;;;9.52;3.35;;;;;;;;;;6185933;28;20306;-75
2023/05/10 08:46:02;;;;;;;9.82;3.10;;;;;;;;;;6186254;28;20295;-76
2023/05/10 08:49:11;;;;;;;12.70;3.80;;;;;;;;;;6186293;28;20298;-76
2023/05/10 08:52:17;;;;;;;7.15;3.72;;;;;;;;;;6186333;28;20612;-78
2023/05/10 08:55:24;;;;;;;3.33;3.08;;;;;;;;;;6186742;28;20461;-77
2023/05/10 08:58:30;;;;;;;9.32;3.40;;;;;;;;;;6188782;28;20293;-77
2023/05/10 09:01:37;;;;;;;7.40;3.65;;;;;;;;;;6190102;28;20269;-78
2023/05/10 09:04:44;;;;;;;7.35;3.83;;;;;;;;;;6189675;28;20539;-78
2023/05/10 09:07:53;;;;;;;3.97;3.65;;;;;;;;;;6189700;28;20227;-78
2023/05/10 09:10:58;;;;;;;6.55;3.28;;;;;;;;;;6189943;28;20334;-76
2023/05/10 09:14:03;;;;;;;6.22;3.67;;;;;;;;;;6169570;28;20290;-77
2023/05/10 09:17:10;;;;;;;12.32;3.65;;;;;;;;;;6170570;28;20294;-78
2023/05/10 09:20:18;;;;;;;9.52;3.72;;;;;;;;;;6165360;28;20441;-79
2023/05/10 09:23:28;;;;;;;6.05;3.42;;;;;;;;;;6165155;28;20294;-78
2023/05/10 09:26:35;;;;;;;5.07;3.70;;;;;;;;;;6165410;28;20299;-77
2023/05/10 09:29:44;;;;;;;3.55;3.20;;;;;;;;;;6164988;28;20343;-77
2023/05/10 09:32:50;;;;;;;7.50;3.95;;;;;;;;;;6165263;28;20294;-77
2023/05/10 09:36:07;;;;;;;8.93;3.53;;;;;;;;;;6165297;28;20294;-78
2023/05/10 09:39:12;;;;;;;5.28;3.33;;;;;;;;;;6165415;28;20295;-78
2023/05/10 09:42:20;;;;;;;4.70;3.60;;;;;;;;;;6166429;28;20302;-78
2023/05/10 09:45:28;;;;;;;8.82;3.83;;;;;;;;;;6164852;28;20463;-78
2023/05/10 09:48:38;;;;;;;3.28;3.00;;;;;;;;;;6163940;28;20289;-78
2023/05/10 09:51:45;;;;;;;15.35;4.18;;;;;;;;;;6165686;28;20295;-78
2023/05/10 09:54:54;;;;;;;7.88;3.47;;;;;;;;;;6164713;28;20302;-78
2023/05/10 09:58:01;;;;;;;7.47;3.78;;;;;;;;;;6179523;28;20290;-78
2023/05/10 10:01:12;;;;;;;14.25;3.95;;;;;;;;;;6164997;28;20294;-79
2023/05/10 10:04:19;;;;;;;3.42;3.10;;;;;;;;;;6163740;28;20314;-79
2023/05/10 10:07:27;;;;;;;11.00;3.78;;;;;;;;;;6164613;28;20294;-78
2023/05/10 10:10:33;;;;;;;4.45;3.58;;;;;;;;;;6170537;28;20341;-78
2023/05/10 10:13:39;;;;;;;8.43;3.75;;;;;;;;;;6187345;28;20484;-78
2023/05/10 10:16:44;;;;;;;7.10;3.80;;;;;;;;;;6188341;28;20279;-78
2023/05/10 10:20:12;;;;;;;11.02;4.20;;;;;;;;;;6171071;28;20336;-77
2023/05/10 10:23:19;;;;;;;15.52;4.05;;;;;;;;;;6187884;28;20695;-77
2023/05/10 10:26:24;;;;;;;8.52;3.22;;;;;;;;;;6196986;28;20277;-78
2023/05/10 10:29:35;;;;;;;11.32;3.22;;;;;;;;;;6188227;28;20582;-77
2023/05/10 10:33:02;;;;;;;11.07;3.20;;;;;;;;;;6171937;28;20299;-78
2023/05/10 10:36:21;;;;;;;9.05;3.05;;;;;;;;;;6149781;28;20295;-77
2023/05/10 10:39:28;;;;;;;10.13;3.42;;;;;;;;;;6164585;28;20299;-79
2023/05/10 10:42:46;;;;;;;12.75;3.85;;;;;;;;;;6175093;28;20294;-78
2023/05/10 10:46:13;;;;;;;3.67;3.40;;;;;;;;;;6173727;28;20299;-78
2023/05/10 10:49:19;;;;;;;11.43;3.35;;;;;;;;;;6163920;28;20431;-77
2023/05/10 10:52:28;;;;;;;7.10;3.53;;;;;;;;;;6166619;28;20295;-77
2023/05/10 10:55:36;;;;;;;16.25;4.05;;;;;;;;;;6162726;28;20303;-78
2023/05/10 10:58:42;;;;;;;7.88;3.55;;;;;;;;;;6166917;28;20278;-76
2023/05/10 11:01:53;;;;;;;7.60;3.63;;;;;;;;;;6163250;28;20295;-77
2023/05/10 11:04:59;;;;;;;8.50;3.65;;;;;;;;;;6162616;28;20374;-77
2023/05/10 11:08:10;;;;;;;7.82;3.78;;;;;;;;;;6161782;28;20286;-77
2023/05/10 11:11:17;;;;;;;6.20;3.42;;;;;;;;;;6176836;28;20602;-78
2023/05/10 11:14:24;;;;;;;10.63;3.50;;;;;;;;;;6169083;28;20331;-77
2023/05/10 11:17:30;;;;;;;10.48;3.42;;;;;;;;;;6186743;28;20293;-78
2023/05/10 11:20:41;;;;;;;12.15;3.28;;;;;;;;;;6186805;28;20456;-78
2023/05/10 11:23:55;;;;;;;11.38;3.55;;;;;;;;;;6185249;28;20454;-78
2023/05/10 11:27:02;;;;;;;5.80;3.45;;;;;;;;;;6186991;28;20306;-78
2023/05/10 11:30:11;;;;;;;10.35;4.28;;;;;;;;;;6169514;28;20632;-78
2023/05/10 11:33:20;;;;;;;11.73;3.35;;;;;;;;;;6185394;28;20301;-78
2023/05/10 11:36:28;;;;;;;7.90;3.30;;;;;;;;;;6192309;28;20301;-77
2023/05/10 11:39:34;;;;;;;6.00;3.13;;;;;;;;;;6189984;28;20302;-77
2023/05/10 11:42:40;;;;;;;8.20;3.60;;;;;;;;;;6186947;28;20293;-78
2023/05/10 11:45:47;;;;;;;9.57;3.05;;;;;;;;;;6185874;28;20301;-79
2023/05/10 11:48:53;;;;;;;5.70;3.13;;;;;;;;;;6186354;28;20294;-77
2023/05/10 11:52:06;;;;;;;10.40;3.35;;;;;;;;;;6186381;28;20289;-79
2023/05/10 11:55:13;;;;;;;15.23;3.47;;;;;;;;;;6185395;28;20305;-78
2023/05/10 11:58:21;;;;;;;8.52;3.60;;;;;;;;;;6186468;28;20455;-77
2023/05/10 12:01:26;;;;;;;5.97;3.22;;;;;;;;;;6185927;28;20298;-79
2023/05/10 12:04:32;;;;;;;10.02;3.33;;;;;;;;;;6184894;28;20305;-78
2023/05/10 12:07:37;;;;;;;18.05;3.53;;;;;;;;;;6186316;28;20269;-79
2023/05/10 12:10:43;;;;;;;7.18;3.25;;;;;;;;;;6186403;28;20376;-78
2023/05/10 12:13:49;;;;;;;15.82;3.63;;;;;;;;;;6185317;28;20289;-77
2023/05/10 12:16:55;;;;;;;7.60;3.22;;;;;;;;;;6186621;28;20324;-78
2023/05/10 12:20:14;;;;;;;11.43;3.10;;;;;;;;;;6185711;28;20289;-78
2023/05/10 12:23:19;;;;;;;11.25;3.35;;;;;;;;;;6185320;28;20298;-78
2023/05/10 12:26:27;;;;;;;10.07;3.40;;;;;;;;;;6185947;28;20289;-77
2023/05/10 12:29:34;;;;;;;7.20;3.55;;;;;;;;;;6185703;28;20457;-77
2023/05/10 12:32:40;;;;;;;8.90;3.72;;;;;;;;;;6189686;28;20289;-78
2023/05/10 12:35:47;;;;;;;5.90;3.00;;;;;;;;;;6189603;28;20301;-77
2023/05/10 12:38:52;;;;;;;5.60;2.78;;;;;;;;;;6173418;28;20295;-77
2023/05/10 12:41:57;;;;;;;6.85;3.05;;;;;;;;;;6206345;28;20289;-77
2023/05/10 12:45:05;;;;;;;3.60;2.85;;;;;;;;;;6189943;28;20322;-78
2023/05/10 12:48:13;;;;;;;15.93;3.50;;;;;;;;;;6197002;28;20289;-78
2023/05/10 12:51:21;;;;;;;9.07;3.17;;;;;;;;;;6189914;28;20321;-78
2023/05/10 12:54:27;;;;;;;11.38;3.00;;;;;;;;;;6189139;28;20555;-78
2023/05/10 12:57:35;;;;;;;5.75;3.15;;;;;;;;;;6173538;28;20290;-79
2023/05/10 13:00:41;;;;;;;6.63;3.50;;;;;;;;;;6189401;28;20301;-77
2023/05/10 13:03:46;;;;;;;9.70;3.38;;;;;;;;;;6188679;28;20309;-77
2023/05/10 13:06:52;;;;;;;7.55;2.80;;;;;;;;;;6189860;28;20294;-77
2023/05/10 13:09:57;;;;;;;8.77;3.20;;;;;;;;;;6188686;28;20309;-77
2023/05/10 13:13:02;;;;;;;13.77;3.65;;;;;;;;;;6189230;28;20297;-76
2023/05/10 13:16:10;;;;;;;8.13;2.85;;;;;;;;;;6189939;28;20290;-78
2023/05/10 13:19:15;;;;;;;14.07;3.20;;;;;;;;;;6189238;28;20317;-78
2023/05/10 13:22:21;;;;;;;4.72;2.90;;;;;;;;;;6190132;28;20474;-76
2023/05/10 13:25:40;;;;;;;8.68;2.85;;;;;;;;;;6189654;28;20302;-75
2023/05/10 13:28:45;;;;;;;7.07;2.75;;;;;;;;;;6189096;28;20302;-75
2023/05/10 13:31:52;;;;;;;7.30;2.88;;;;;;;;;;6189883;28;20289;-77
2023/05/10 13:34:57;;;;;;;3.08;2.60;;;;;;;;;;6189276;28;20294;-75
2023/05/10 13:38:03;;;;;;;8.05;3.72;;;;;;;;;;6188821;28;20589;-81
2023/05/10 13:41:10;;;;;;;4.82;3.05;;;;;;;;;;6156104;28;20293;-77
2023/05/10 13:44:16;;;;;;;9.90;3.20;;;;;;;;;;6188931;28;20294;-77
2023/05/10 13:47:22;;;;;;;5.40;3.05;;;;;;;;;;6189512;28;20313;-79
2023/05/10 13:50:27;;;;;;;10.60;2.97;;;;;;;;;;6189355;28;20345;-76
2023/05/10 13:53:33;;;;;;;6.60;2.80;;;;;;;;;;6188805;28;20305;-76
2023/05/10 13:56:38;;;;;;;5.00;3.28;;;;;;;;;;6188807;28;20570;-76
2023/05/10 13:59:43;;;;;;;3.67;2.60;;;;;;;;;;6191784;28;20378;-77
2023/05/10 14:02:50;;;;;;;4.22;2.80;;;;;;;;;;6188419;28;20593;-75
2023/05/10 14:05:55;;;;;;;2.90;2.80;;;;;;;;;;6186891;28;20543;-77
2023/05/10 14:09:00;;;;;;;7.30;2.95;;;;;;;;;;6202815;28;20302;-77
2023/05/10 14:12:05;;;;;;;12.05;3.17;;;;;;;;;;6188710;28;20290;-78
2023/05/10 14:15:11;;;;;;;8.48;2.92;;;;;;;;;;6187919;28;20341;-79
2023/05/10 14:18:21;;;;;;;3.53;3.20;;;;;;;;;;6187577;28;20290;-77
2023/05/10 14:21:30;;;;;;;6.82;2.90;;;;;;;;;;6188709;28;20293;-79
2023/05/10 14:24:35;;;;;;;6.50;3.00;;;;;;;;;;6188146;28;20305;-82
2023/05/10 14:27:40;;;;;;;5.72;2.80;;;;;;;;;;6171823;28;20294;-82
2023/05/10 14:30:46;;;;;;;2.72;2.53;;;;;;;;;;6188051;28;20297;-81
2023/05/10 14:33:52;;;;;;;7.85;2.88;;;;;;;;;;6186943;28;20317;-76
2023/05/10 14:36:58;;;;;;;2.63;2.63;;;;;;;;;;6188159;28;20481;-79
2023/05/10 14:40:04;;;;;;;5.53;2.97;;;;;;;;;;6170808;28;20302;-77
2023/05/10 14:43:09;;;;;;;3.20;2.72;;;;;;;;;;6187377;28;20355;-79
2023/05/10 14:46:15;;;;;;;12.82;3.13;;;;;;;;;;6188217;28;20314;-79
2023/05/10 14:49:24;;;;;;;3.58;2.58;;;;;;;;;;6187531;28;20613;-79
2023/05/10 14:52:29;;;;;;;6.15;2.53;;;;;;;;;;6186356;28;20277;-79
2023/05/10 14:55:38;;;;;;;21.15;3.40;;;;;;;;;;6186993;28;20594;-79
2023/05/10 14:58:43;;;;;;;3.72;2.33;;;;;;;;;;6187007;28;20458;-78
2023/05/10 15:01:48;;;;;;;2.53;2.40;;;;;;;;;;6187099;28;20338;-80
2023/05/10 15:04:55;;;;;;;6.90;2.70;;;;;;;;;;6187168;28;20293;-82
2023/05/10 15:08:00;;;;;;;9.85;3.28;;;;;;;;;;6187859;28;20310;-79
2023/05/10 15:11:06;;;;;;;8.45;2.55;;;;;;;;;;6196515;28;20294;-79
2023/05/10 15:14:11;;;;;;;5.60;2.65;;;;;;;;;;6186769;28;20293;-81
2023/05/10 15:17:17;;;;;;;6.93;2.80;;;;;;;;;;6187414;28;20317;-77
2023/05/10 15:20:23;;;;;;;13.27;2.65;;;;;;;;;;6186483;28;20290;-79
2023/05/10 15:23:29;;;;;;;12.48;2.63;;;;;;;;;;6186345;28;20486;-78
2023/05/10 15:26:35;;;;;;;8.77;2.60;;;;;;;;;;6187159;28;20286;-77
2023/05/10 15:29:40;;;;;;;5.57;2.45;;;;;;;;;;6186913;28;20290;-76
2023/05/10 15:32:45;;;;;;;2.80;2.38;;;;;;;;;;6187415;28;20301;-79
2023/05/10 15:35:53;;;;;;;8.48;2.38;;;;;;;;;;6186138;28;20302;-76
2023/05/10 15:38:58;;;;;;;9.00;2.97;;;;;;;;;;6169577;28;20301;-78
2023/05/10 15:42:04;;;;;;;8.00;2.67;;;;;;;;;;6183415;28;20298;-77
2023/05/10 15:45:12;;;;;;;20.42;2.70;;;;;;;;;;6186490;28;20302;-77
2023/05/10 15:48:17;;;;;;;4.88;2.60;;;;;;;;;;6186072;28;20311;-77
2023/05/10 15:51:23;;;;;;;11.57;3.80;;;;;;;;;;6186550;28;20299;-76
2023/05/10 15:54:30;;;;;;;4.95;2.80;;;;;;;;;;6185384;28;20301;-77
2023/05/10 15:57:35;;;;;;;3.55;3.35;;;;;;;;;;6201970;28;20570;-78
2023/05/10 16:00:41;;;;;;;3.97;3.45;;;;;;;;;;6188571;28;20298;-77
2023/05/10 16:03:46;;;;;;;9.32;3.95;;;;;;;;;;6187133;28;20301;-76
2023/05/10 16:06:53;;;;;;;7.72;2.35;;;;;;;;;;6206267;28;20320;-77
2023/05/10 16:09:57;;;;;;;2.58;2.38;;;;;;;;;;6190379;28;20293;-78
2023/05/10 16:13:03;;;;;;;4.53;2.63;;;;;;;;;;6190396;28;20346;-77
2023/05/10 16:16:08;;;;;;;9.00;3.08;;;;;;;;;;6174948;28;20425;-78
2023/05/10 16:19:14;;;;;;;5.97;2.63;;;;;;;;;;6191613;28;20301;-75
2023/05/10 16:22:25;;;;;;;6.72;2.35;;;;;;;;;;6195012;28;20298;-75
2023/05/10 16:25:31;;;;;;;6.78;2.50;;;;;;;;;;6190170;28;20297;-74
2023/05/10 16:28:36;;;;;;;10.45;2.60;;;;;;;;;;6190917;28;20306;-77
2023/05/10 16:31:41;;;;;;;3.70;2.47;;;;;;;;;;6190803;28;20266;-77
2023/05/10 16:34:46;;;;;;;2.55;2.45;;;;;;;;;;6189968;28;20494;-76
2023/05/10 16:37:53;;;;;;;2.53;2.33;;;;;;;;;;6205820;28;20298;-76
2023/05/10 16:40:59;;;;;;;4.07;2.45;;;;;;;;;;6190314;28;20293;-76
2023/05/10 16:44:04;;;;;;;3.17;2.60;;;;;;;;;;6190457;28;20314;-78
2023/05/10 16:47:11;;;;;;;3.10;2.65;;;;;;;;;;6190451;28;20289;-76
2023/05/10 16:50:16;;;;;;;3.90;2.55;;;;;;;;;;6190461;28;20289;-78
2023/05/10 16:53:24;;;;;;;3.55;3.03;;;;;;;;;;6172865;28;20310;-80
2023/05/10 16:56:30;;;;;;;2.63;2.53;;;;;;;;;;6190416;28;20305;-76
2023/05/10 16:59:35;;;;;;;6.22;2.50;;;;;;;;;;6190056;28;20297;-78
2023/05/10 17:02:40;;;;;;;4.97;2.45;;;;;;;;;;6173582;28;20301;-80
2023/05/10 17:05:45;;;;;;;2.75;2.60;;;;;;;;;;6189549;28;20604;-79
2023/05/10 17:08:52;;;;;;;2.50;2.40;;;;;;;;;;6189790;28;20297;-78
2023/05/10 17:11:57;;;;;;;6.90;3.03;;;;;;;;;;6190013;28;20467;-76
2023/05/10 17:15:03;;;;;;;2.55;2.45;;;;;;;;;;6189710;28;20293;-79
2023/05/10 17:18:10;;;;;;;4.25;3.00;;;;;;;;;;6188636;28;20301;-81
2023/05/10 17:21:16;;;;;;;9.80;2.90;;;;;;;;;;6190176;28;20285;-78
2023/05/10 17:24:22;;;;;;;2.72;2.38;;;;;;;;;;6189766;28;20302;-77
2023/05/10 17:27:29;;;;;;;6.20;3.38;;;;;;;;;;6190185;28;20293;-76
2023/05/10 17:30:34;;;;;;;5.25;2.40;;;;;;;;;;6191878;28;20305;-78
2023/05/10 17:33:39;;;;;;;6.28;2.60;;;;;;;;;;6191478;28;20317;-76
2023/05/10 17:36:44;;;;;;;5.13;2.38;;;;;;;;;;6173510;28;20301;-77
2023/05/10 17:39:51;;;;;;;9.23;2.90;;;;;;;;;;6190074;28;20301;-76
2023/05/10 17:42:56;;;;;;;6.45;2.80;;;;;;;;;;6190004;28;20290;-78
2023/05/10 17:46:02;;;;;;;6.90;3.15;;;;;;;;;;6190684;28;20293;-80
2023/05/10 17:49:07;;;;;;;5.47;2.70;;;;;;;;;;6189889;28;20306;-77
2023/05/10 17:52:13;;;;;;;12.25;2.70;;;;;;;;;;6190879;28;20324;-79
2023/05/10 17:55:19;;;;;;;3.35;2.30;;;;;;;;;;6189186;28;20298;-77
2023/05/10 17:58:25;;;;;;;12.23;2.58;;;;;;;;;;6205117;28;20297;-79
2023/05/10 18:01:30;;;;;;;3.78;2.47;;;;;;;;;;6189447;28;20268;-78
2023/05/10 18:04:35;;;;;;;7.15;2.63;;;;;;;;;;6189761;28;20298;-79
2023/05/10 18:07:40;;;;;;;2.92;2.72;;;;;;;;;;6190429;28;20275;-78
2023/05/10 18:10:47;;;;;;;5.60;3.00;;;;;;;;;;6189274;28;20301;-77
2023/05/10 18:13:53;;;;;;;3.30;2.45;;;;;;;;;;6190281;28;20556;-77
2023/05/10 18:16:59;;;;;;;6.13;2.50;;;;;;;;;;6190215;28;20298;-80
2023/05/10 18:20:06;;;;;;;3.42;3.00;;;;;;;;;;6188722;28;20310;-79
2023/05/10 18:23:14;;;;;;;3.70;2.85;;;;;;;;;;6189543;28;20310;-78
2023/05/10 18:26:21;;;;;;;2.33;2.22;;;;;;;;;;6190131;28;20294;-78
2023/05/10 18:29:26;;;;;;;2.65;2.45;;;;;;;;;;6191053;28;20528;-78
2023/05/10 18:32:31;;;;;;;2.78;2.60;;;;;;;;;;6194517;28;20290;-78
2023/05/10 18:35:38;;;;;;;2.63;2.42;;;;;;;;;;6189189;28;20298;-77